Time;durP1;ratioP1;P1;durP2;ratioP2;P2;SDS_P1;SDS_P2;PMS_P1;PMS_P2;Temp;Humidity;BMP_temperature;BMP_pressure;BME280_temperature;BME280_humidity;BME280_pressure;Samples;Min_cycle;Max_cycle;Signal;HPM_P1;HPM_P2
2023/06/08 00:01:54;;;;;;;12.07;8.50;;;20.80;63.40;;;;;;5039923;28;20259;-87
2023/06/08 00:04:22;;;;;;;8.35;7.55;;;20.90;62.90;;;;;;5039445;28;20196;-86
2023/06/08 00:06:49;;;;;;;8.40;7.80;;;20.90;63.40;;;;;;5039826;28;20209;-87
2023/06/08 00:09:16;;;;;;;8.70;8.00;;;20.90;62.80;;;;;;5029475;28;20261;-89
2023/06/08 00:11:41;;;;;;;8.65;8.05;;;20.80;62.80;;;;;;5054576;28;20184;-86
2023/06/08 00:14:07;;;;;;;9.65;8.52;;;20.70;63.40;;;;;;5024236;28;20184;-88
2023/06/08 00:16:34;;;;;;;9.10;8.38;;;20.60;63.70;;;;;;5039342;28;20220;-88
2023/06/08 00:19:01;;;;;;;8.85;7.97;;;20.60;63.40;;;;;;5053599;28;20192;-88
2023/06/08 00:21:29;;;;;;;8.25;7.65;;;20.50;63.90;;;;;;5057855;28;20177;-85
2023/06/08 00:23:55;;;;;;;8.88;8.27;;;20.40;64.10;;;;;;5045159;28;20252;-88
2023/06/08 00:26:22;;;;;;;8.70;7.90;;;20.50;63.90;;;;;;5039548;28;20279;-88
2023/06/08 00:28:48;;;;;;;8.52;7.85;;;20.50;63.70;;;;;;5040793;28;20211;-88
2023/06/08 00:31:17;;;;;;;8.55;7.95;;;20.30;64.30;;;;;;5039135;28;20195;-87
2023/06/08 00:33:42;;;;;;;8.38;7.78;;;20.10;65.30;;;;;;5039413;28;20241;-87
2023/06/08 00:36:08;;;;;;;8.00;7.30;;;19.90;65.70;;;;;;5042994;28;20221;-88
2023/06/08 00:38:34;;;;;;;8.65;7.93;;;19.70;66.60;;;;;;5052615;28;20186;-89
2023/06/08 00:41:00;;;;;;;8.23;7.57;;;19.70;66.50;;;;;;5062037;28;20200;-87
2023/06/08 00:43:26;;;;;;;8.00;7.40;;;19.70;66.80;;;;;;5062574;28;20235;-88
2023/06/08 00:45:55;;;;;;;8.88;8.13;;;19.70;66.70;;;;;;5056745;28;20186;-87
2023/06/08 00:48:21;;;;;;;8.18;7.53;;;19.60;67.00;;;;;;5038818;28;20205;-88
2023/06/08 00:50:47;;;;;;;8.50;7.90;;;19.60;66.40;;;;;;5039213;28;20177;-87
2023/06/08 00:53:14;;;;;;;7.95;7.35;;;19.60;66.40;;;;;;5040023;28;20181;-87
2023/06/08 00:55:43;;;;;;;8.50;7.70;;;19.60;66.40;;;;;;5039676;28;20195;-88
2023/06/08 00:58:13;;;;;;;8.10;7.57;;;19.40;67.90;;;;;;5023153;28;20217;-86
2023/06/08 01:00:40;;;;;;;8.55;7.85;;;19.30;68.70;;;;;;5021917;28;20266;-87
2023/06/08 01:03:06;;;;;;;8.70;7.93;;;19.40;67.90;;;;;;5037090;28;20193;-88
2023/06/08 01:05:32;;;;;;;8.95;8.25;;;19.40;67.80;;;;;;5052742;28;20655;-89
2023/06/08 01:08:17;;;;;;;8.88;8.18;;;19.40;67.60;;;;;;5054078;28;20243;-88
2023/06/08 01:11:05;;;;;;;8.23;7.57;;;19.40;67.60;;;;;;5045468;28;20253;-88
2023/06/08 01:13:45;;;;;;;9.05;8.35;;;19.20;68.30;;;;;;5048127;28;20235;-86
2023/06/08 01:16:15;;;;;;;8.23;7.60;;;19.20;68.00;;;;;;5029176;28;20169;-86
2023/06/08 01:18:42;;;;;;;8.60;8.00;;;19.30;68.00;;;;;;5048088;28;20185;-87
2023/06/08 01:21:24;;;;;;;9.07;8.32;;;19.30;67.90;;;;;;5046309;28;20185;-86
2023/06/08 01:24:30;;;;;;;8.70;8.10;;;19.40;66.90;;;;;;5048073;28;20153;-87
2023/06/08 01:26:57;;;;;;;7.90;7.30;;;19.40;67.10;;;;;;4948248;29;20231;-87
2023/06/08 01:29:27;;;;;;;8.30;7.65;;;19.40;67.10;;;;;;4931287;29;20181;-88
2023/06/08 01:31:54;;;;;;;8.10;7.60;;;19.40;66.50;;;;;;4981369;28;20198;-85
2023/06/08 01:34:20;;;;;;;9.15;8.48;;;19.40;66.40;;;;;;5047517;28;20174;-86
2023/06/08 01:36:56;;;;;;;8.30;7.70;;;19.30;67.00;;;;;;5046642;28;20511;-86
2023/06/08 01:39:48;;;;;;;8.38;7.78;;;19.30;66.80;;;;;;5046857;28;20166;-86
2023/06/08 01:42:19;;;;;;;8.32;7.70;;;19.20;67.00;;;;;;5046049;28;20177;-87
2023/06/08 01:45:10;;;;;;;7.88;7.38;;;19.10;67.70;;;;;;5044710;28;20174;-88
2023/06/08 01:47:52;;;;;;;8.88;8.18;;;19.10;67.60;;;;;;5032039;28;20429;-84
2023/06/08 01:50:19;;;;;;;8.98;8.27;;;19.10;67.60;;;;;;5043688;28;20182;-86
2023/06/08 01:52:45;;;;;;;8.35;7.75;;;19.00;68.00;;;;;;5026185;28;20197;-86
2023/06/08 01:55:19;;;;;;;8.18;7.50;;;19.00;67.90;;;;;;5043766;28;20184;-86
2023/06/08 01:57:45;;;;;;;8.13;7.55;;;18.90;68.50;;;;;;5040010;28;20212;-86
2023/06/08 02:00:18;;;;;;;8.30;7.70;;;18.90;68.60;;;;;;5046427;28;20173;-84
2023/06/08 02:02:44;;;;;;;8.20;7.60;;;18.90;68.00;;;;;;5055394;28;20199;-86
2023/06/08 02:05:11;;;;;;;8.10;7.50;;;18.90;67.90;;;;;;5047220;28;20219;-85
2023/06/08 02:07:38;;;;;;;8.32;7.70;;;19.00;67.30;;;;;;5027551;28;20201;-83
2023/06/08 02:10:09;;;;;;;8.55;7.85;;;19.00;67.70;;;;;;5046080;28;20181;-87
2023/06/08 02:12:35;;;;;;;8.25;7.53;;;18.90;68.30;;;;;;5045935;28;20188;-87
2023/06/08 02:15:01;;;;;;;8.50;7.68;;;18.80;69.00;;;;;;5045748;28;20192;-85
2023/06/08 02:17:33;;;;;;;8.30;7.80;;;18.70;69.30;;;;;;5046558;28;20546;-86
2023/06/08 02:20:06;;;;;;;8.25;7.65;;;18.80;68.50;;;;;;5045748;28;20188;-86
2023/06/08 02:22:35;;;;;;;8.52;7.95;;;18.80;68.80;;;;;;5045716;28;20161;-85
2023/06/08 02:25:03;;;;;;;7.90;7.22;;;18.60;69.70;;;;;;5045189;28;20183;-86
2023/06/08 02:27:29;;;;;;;8.35;7.80;;;18.50;70.50;;;;;;5044595;28;20208;-85
2023/06/08 02:29:57;;;;;;;8.95;8.25;;;18.50;69.80;;;;;;5026753;28;20177;-87
2023/06/08 02:32:23;;;;;;;8.50;7.85;;;18.70;69.20;;;;;;5045400;28;20208;-88
2023/06/08 02:34:55;;;;;;;8.43;7.75;;;18.60;69.20;;;;;;5047326;28;20181;-86
2023/06/08 02:37:22;;;;;;;9.15;8.45;;;18.70;70.00;;;;;;5044801;28;20201;-86
2023/06/08 02:39:48;;;;;;;8.55;7.95;;;18.60;69.40;;;;;;5045729;28;20188;-86
2023/06/08 02:42:14;;;;;;;9.45;8.68;;;18.60;69.30;;;;;;5025577;28;20189;-86
2023/06/08 02:44:40;;;;;;;9.90;8.38;;;18.50;69.80;;;;;;5044036;28;20604;-88
2023/06/08 02:47:05;;;;;;;9.02;8.32;;;18.50;70.30;;;;;;5043542;28;20216;-88
2023/06/08 02:49:31;;;;;;;8.65;7.95;;;18.40;70.00;;;;;;5044288;28;20248;-86
2023/06/08 02:51:57;;;;;;;8.98;8.25;;;18.30;70.50;;;;;;5025862;28;20186;-85
2023/06/08 02:54:22;;;;;;;9.20;8.50;;;18.20;70.80;;;;;;5044567;28;20188;-85
2023/06/08 02:56:48;;;;;;;8.57;7.88;;;18.10;70.70;;;;;;5044610;28;20242;-86
2023/06/08 02:59:14;;;;;;;8.77;8.07;;;18.20;70.40;;;;;;5056411;28;20227;-88
2023/06/08 03:01:51;;;;;;;9.95;9.25;;;18.30;70.50;;;;;;5056783;28;20181;-86
2023/06/08 03:04:18;;;;;;;9.65;8.93;;;18.10;72.50;;;;;;5045293;28;20172;-84
2023/06/08 03:06:44;;;;;;;10.68;9.77;;;17.80;74.40;;;;;;5046076;28;20496;-86
2023/06/08 03:09:09;;;;;;;9.55;8.75;;;17.70;75.70;;;;;;5027612;28;20283;-85
2023/06/08 03:11:35;;;;;;;9.82;8.85;;;17.80;74.80;;;;;;5044876;28;20186;-85
2023/06/08 03:14:03;;;;;;;9.93;8.40;;;17.80;74.70;;;;;;5045734;28;20199;-85
2023/06/08 03:16:28;;;;;;;9.15;8.45;;;17.80;74.30;;;;;;5044472;28;20177;-86
2023/06/08 03:18:54;;;;;;;9.48;8.77;;;17.90;74.00;;;;;;5044169;28;20192;-88
2023/06/08 03:21:20;;;;;;;9.57;8.90;;;18.00;73.50;;;;;;5043670;28;20204;-87
2023/06/08 03:23:48;;;;;;;9.65;8.95;;;18.20;73.10;;;;;;5044783;28;20183;-86
2023/06/08 03:26:15;;;;;;;10.52;9.57;;;18.30;73.90;;;;;;5044838;28;20196;-86
2023/06/08 03:28:40;;;;;;;10.85;10.05;;;18.30;73.50;;;;;;5044949;28;20199;-85
2023/06/08 03:31:06;;;;;;;10.40;9.70;;;18.40;73.70;;;;;;5044897;28;20579;-86
2023/06/08 03:33:32;;;;;;;10.02;9.23;;;18.50;73.40;;;;;;5044016;28;20185;-85
2023/06/08 03:35:57;;;;;;;10.18;9.48;;;18.40;72.90;;;;;;5025526;28;20204;-87
2023/06/08 03:38:23;;;;;;;10.55;9.70;;;18.30;72.70;;;;;;5023340;28;20208;-85
2023/06/08 03:40:49;;;;;;;10.13;9.45;;;18.20;72.70;;;;;;5039796;28;20180;-89
2023/06/08 03:43:15;;;;;;;10.75;9.95;;;18.10;73.30;;;;;;5041381;28;20172;-86
2023/06/08 03:45:40;;;;;;;10.35;9.65;;;18.00;74.50;;;;;;5042031;28;20184;-87
2023/06/08 03:48:06;;;;;;;10.55;9.77;;;17.90;75.60;;;;;;5041051;28;20236;-86
2023/06/08 03:50:33;;;;;;;10.52;9.63;;;17.90;75.00;;;;;;5041623;28;20195;-86
2023/06/08 03:52:58;;;;;;;10.55;9.75;;;18.10;74.70;;;;;;5042144;28;20185;-85
2023/06/08 03:55:26;;;;;;;15.23;10.88;;;18.30;74.90;;;;;;5055165;28;20219;-86
2023/06/08 03:57:52;;;;;;;11.32;10.43;;;18.40;75.10;;;;;;5047848;28;20246;-84
2023/06/08 04:00:20;;;;;;;12.52;11.50;;;18.40;74.70;;;;;;5044485;28;20185;-86
2023/06/08 04:02:46;;;;;;;10.98;10.18;;;18.40;75.40;;;;;;5044593;28;20177;-86
2023/06/08 04:05:13;;;;;;;12.20;11.10;;;18.40;74.80;;;;;;5043761;28;20196;-85
2023/06/08 04:07:40;;;;;;;11.70;10.77;;;18.50;74.80;;;;;;5022998;28;20289;-86
2023/06/08 04:10:06;;;;;;;11.75;10.85;;;18.50;74.60;;;;;;5039594;28;20173;-85
2023/06/08 04:12:32;;;;;;;11.57;10.65;;;18.50;75.10;;;;;;5043578;28;20204;-85
2023/06/08 04:14:58;;;;;;;11.70;10.90;;;18.40;75.30;;;;;;5043926;28;20177;-85
2023/06/08 04:17:25;;;;;;;11.80;10.90;;;18.40;75.90;;;;;;5042480;28;20208;-85
2023/06/08 04:19:52;;;;;;;11.90;11.10;;;18.00;77.60;;;;;;5024926;28;20185;-86
2023/06/08 04:22:17;;;;;;;10.82;10.07;;;17.80;78.80;;;;;;5042044;28;20188;-86
2023/06/08 04:24:43;;;;;;;12.10;11.20;;;17.80;79.30;;;;;;5044303;28;20196;-85
2023/06/08 04:27:08;;;;;;;12.98;11.88;;;18.00;78.90;;;;;;5043096;28;20220;-86
2023/06/08 04:29:34;;;;;;;12.45;11.55;;;18.10;79.00;;;;;;5042906;28;20196;-86
2023/06/08 04:32:00;;;;;;;13.02;11.95;;;18.20;78.40;;;;;;5042076;28;20835;-89
2023/06/08 04:34:26;;;;;;;13.13;12.05;;;18.10;79.20;;;;;;5041734;28;20187;-86
2023/06/08 04:36:51;;;;;;;11.85;11.05;;;18.20;78.50;;;;;;5040943;28;20576;-87
2023/06/08 04:39:17;;;;;;;13.00;12.10;;;18.40;78.40;;;;;;5040541;28;20212;-86
2023/06/08 04:41:45;;;;;;;12.43;11.43;;;18.50;78.00;;;;;;5040919;28;20199;-87
2023/06/08 04:44:13;;;;;;;13.13;12.07;;;18.60;77.60;;;;;;5041027;28;20177;-84
2023/06/08 04:46:42;;;;;;;13.10;12.10;;;18.40;78.50;;;;;;5039806;28;20606;-86
2023/06/08 04:49:12;;;;;;;13.23;12.23;;;18.30;79.10;;;;;;5042181;28;20191;-87
2023/06/08 04:51:40;;;;;;;12.97;11.97;;;18.30;79.40;;;;;;5056148;28;20179;-84
2023/06/08 04:54:13;;;;;;;13.45;12.45;;;18.30;79.40;;;;;;5041521;28;20188;-87
2023/06/08 04:56:42;;;;;;;13.15;12.20;;;18.40;79.20;;;;;;5036404;28;20231;-85
2023/06/08 04:59:09;;;;;;;12.88;11.77;;;18.40;78.80;;;;;;5023007;28;20215;-88
2023/06/08 05:01:35;;;;;;;13.90;12.68;;;18.40;78.70;;;;;;5023644;28;20186;-85
2023/06/08 05:04:01;;;;;;;13.95;12.80;;;18.40;79.40;;;;;;5023481;28;20717;-86
2023/06/08 05:06:27;;;;;;;13.30;12.30;;;18.30;79.50;;;;;;5023391;28;20708;-86
2023/06/08 05:08:53;;;;;;;12.30;11.20;;;18.40;80.10;;;;;;5005268;28;20183;-89
2023/06/08 05:11:18;;;;;;;13.48;12.18;;;18.50;79.30;;;;;;5012446;28;20199;-86
2023/06/08 05:13:44;;;;;;;13.95;12.90;;;18.60;78.80;;;;;;5042145;28;20252;-86
2023/06/08 05:16:10;;;;;;;13.20;12.20;;;18.70;78.70;;;;;;5021870;28;20203;-88
2023/06/08 05:18:36;;;;;;;12.05;11.10;;;18.60;78.70;;;;;;5041981;28;20196;-85
2023/06/08 05:21:02;;;;;;;12.40;11.40;;;18.70;78.30;;;;;;5041231;28;20212;-86
2023/06/08 05:23:28;;;;;;;12.60;11.70;;;18.70;78.10;;;;;;5026462;28;20215;-87
2023/06/08 05:25:53;;;;;;;12.55;11.65;;;18.70;78.00;;;;;;5044001;28;20180;-87
2023/06/08 05:28:19;;;;;;;12.90;11.57;;;18.80;77.30;;;;;;5043162;28;20215;-86
2023/06/08 05:30:45;;;;;;;13.20;12.20;;;18.80;77.50;;;;;;5043067;28;20192;-86
2023/06/08 05:33:10;;;;;;;13.02;12.07;;;18.90;77.80;;;;;;5041260;28;20201;-87
2023/06/08 05:35:36;;;;;;;13.35;12.35;;;19.10;77.20;;;;;;5041824;28;20173;-88
2023/06/08 05:38:02;;;;;;;12.98;12.07;;;19.30;77.00;;;;;;5042379;28;20204;-88
2023/06/08 05:40:28;;;;;;;13.00;11.90;;;19.30;76.60;;;;;;5044628;28;20191;-87
2023/06/08 05:42:53;;;;;;;12.95;12.05;;;19.40;76.50;;;;;;5043533;28;20181;-86
2023/06/08 05:45:19;;;;;;;12.73;11.73;;;19.50;77.50;;;;;;5044188;28;20204;-87
2023/06/08 05:47:45;;;;;;;12.82;11.82;;;19.60;77.70;;;;;;5055987;28;20227;-85
2023/06/08 05:50:10;;;;;;;14.25;12.70;;;19.60;76.70;;;;;;5051161;28;20180;-87
2023/06/08 05:52:36;;;;;;;13.43;12.32;;;19.50;78.60;;;;;;5044032;28;20184;-86
2023/06/08 05:55:02;;;;;;;12.80;11.70;;;19.40;79.20;;;;;;5043335;28;20173;-88
2023/06/08 05:57:28;;;;;;;13.93;12.68;;;19.40;81.50;;;;;;5031540;28;20218;-86
2023/06/08 05:59:53;;;;;;;13.38;12.32;;;19.30;83.10;;;;;;5022233;28;20182;-86
2023/06/08 06:02:19;;;;;;;13.77;12.65;;;19.30;83.60;;;;;;5023636;28;20216;-86
2023/06/08 06:04:45;;;;;;;14.00;12.90;;;19.30;83.60;;;;;;5033406;28;20189;-87
2023/06/08 06:07:10;;;;;;;14.65;13.23;;;19.30;85.20;;;;;;5035496;28;20213;-87
2023/06/08 06:09:36;;;;;;;16.08;14.60;;;19.20;85.90;;;;;;5036777;28;20235;-86
2023/06/08 06:12:02;;;;;;;15.30;13.85;;;19.10;87.20;;;;;;5032931;28;20656;-87
2023/06/08 06:14:36;;;;;;;15.25;13.80;;;19.10;87.00;;;;;;5013169;28;20185;-86
2023/06/08 06:17:02;;;;;;;14.52;13.55;;;19.00;88.10;;;;;;5037714;28;20227;-87
2023/06/08 06:19:33;;;;;;;14.85;13.65;;;19.10;89.30;;;;;;5037505;28;20198;-86
2023/06/08 06:21:58;;;;;;;14.98;13.88;;;19.00;90.70;;;;;;5030418;28;20174;-85
2023/06/08 06:24:24;;;;;;;14.95;13.95;;;19.10;90.50;;;;;;5034525;28;20200;-85
2023/06/08 06:26:49;;;;;;;15.65;14.55;;;19.20;88.80;;;;;;5035269;28;20262;-87
2023/06/08 06:29:15;;;;;;;16.45;15.15;;;19.10;88.20;;;;;;5038687;28;20177;-87
2023/06/08 06:31:40;;;;;;;17.13;15.50;;;18.90;90.50;;;;;;5029028;28;20174;-88
2023/06/08 06:34:06;;;;;;;16.70;15.45;;;19.00;91.50;;;;;;5022120;28;20173;-86
2023/06/08 06:36:32;;;;;;;16.70;15.40;;;18.90;92.90;;;;;;5017912;28;20357;-85
2023/06/08 06:38:58;;;;;;;16.58;15.25;;;18.90;93.00;;;;;;5018215;28;20197;-87
2023/06/08 06:41:25;;;;;;;17.98;16.42;;;18.90;93.40;;;;;;5019335;28;20180;-84
2023/06/08 06:43:50;;;;;;;17.63;16.40;;;18.80;92.30;;;;;;5051606;28;20187;-84
2023/06/08 06:46:19;;;;;;;16.98;15.43;;;18.80;92.90;;;;;;5040317;28;20180;-85
2023/06/08 06:48:45;;;;;;;17.35;16.05;;;19.00;92.50;;;;;;5038370;28;20204;-86
2023/06/08 06:51:11;;;;;;;16.80;15.38;;;19.10;90.60;;;;;;5038285;28;20635;-86
2023/06/08 06:53:37;;;;;;;17.25;16.05;;;19.00;90.70;;;;;;5039852;28;20173;-86
2023/06/08 06:56:02;;;;;;;17.67;16.05;;;19.20;91.90;;;;;;5039713;28;20197;-84
2023/06/08 06:58:29;;;;;;;17.40;16.17;;;19.30;91.90;;;;;;5032490;28;20678;-86
2023/06/08 07:00:55;;;;;;;18.45;17.15;;;19.30;91.20;;;;;;5039012;28;20185;-86
2023/06/08 07:03:21;;;;;;;17.17;15.68;;;19.20;91.50;;;;;;5036755;28;20216;-86
2023/06/08 07:05:47;;;;;;;16.50;15.20;;;19.20;91.40;;;;;;5030053;28;20190;-84
2023/06/08 07:08:13;;;;;;;18.33;17.02;;;19.30;90.30;;;;;;5030511;28;20574;-85
2023/06/08 07:10:38;;;;;;;18.55;17.02;;;19.40;91.60;;;;;;5025987;28;20173;-84
2023/06/08 07:13:04;;;;;;;19.02;17.58;;;19.40;90.90;;;;;;5033458;28;20196;-83
2023/06/08 07:15:30;;;;;;;18.70;17.40;;;19.50;90.60;;;;;;5035322;28;20216;-85
2023/06/08 07:17:55;;;;;;;19.52;17.98;;;19.60;91.40;;;;;;5041616;28;20753;-85
2023/06/08 07:20:21;;;;;;;19.10;17.70;;;19.60;87.70;;;;;;5043613;28;20183;-86
2023/06/08 07:22:47;;;;;;;20.10;18.60;;;19.80;89.90;;;;;;5042815;28;20176;-86
2023/06/08 07:25:14;;;;;;;18.15;16.50;;;19.90;89.00;;;;;;5041839;28;20807;-87
2023/06/08 07:27:39;;;;;;;17.77;16.40;;;20.00;86.60;;;;;;5042605;28;20331;-87
2023/06/08 07:30:06;;;;;;;18.10;16.80;;;20.00;86.90;;;;;;5042177;28;20186;-84
2023/06/08 07:32:32;;;;;;;15.80;14.48;;;20.10;86.40;;;;;;5041851;28;20268;-87
2023/06/08 07:34:58;;;;;;;15.85;14.65;;;20.30;83.10;;;;;;5042294;28;20182;-86
2023/06/08 07:37:24;;;;;;;15.90;14.80;;;20.20;82.10;;;;;;5043399;28;20208;-85
2023/06/08 07:39:49;;;;;;;17.10;15.90;;;20.20;83.00;;;;;;5031767;28;20221;-86
2023/06/08 07:42:15;;;;;;;16.40;15.10;;;20.10;84.00;;;;;;5036747;28;20200;-86
2023/06/08 07:44:41;;;;;;;15.98;14.80;;;20.20;84.70;;;;;;5036978;28;20197;-88
2023/06/08 07:47:06;;;;;;;15.77;14.48;;;20.20;84.00;;;;;;5022883;28;20221;-86
2023/06/08 07:49:32;;;;;;;15.15;14.15;;;20.30;83.90;;;;;;5041786;28;20176;-87
2023/06/08 07:51:58;;;;;;;13.80;12.80;;;20.30;84.40;;;;;;5032947;28;20662;-87
2023/06/08 07:54:24;;;;;;;14.55;13.55;;;20.40;82.50;;;;;;5022474;28;20187;-88
2023/06/08 07:56:50;;;;;;;14.07;13.10;;;20.30;80.40;;;;;;5029325;28;20348;-85
2023/06/08 07:59:17;;;;;;;14.90;13.80;;;20.30;82.30;;;;;;5034853;28;20740;-84
2023/06/08 08:01:43;;;;;;;14.85;13.80;;;20.20;81.20;;;;;;5016646;28;20890;-86
2023/06/08 08:04:09;;;;;;;14.55;13.50;;;20.10;81.80;;;;;;5035661;28;20184;-86
2023/06/08 08:06:35;;;;;;;13.73;12.73;;;20.10;81.70;;;;;;5034466;28;20454;-86
2023/06/08 08:09:02;;;;;;;15.05;13.80;;;20.10;83.10;;;;;;5038404;28;20185;-85
2023/06/08 08:11:28;;;;;;;14.55;13.55;;;20.10;82.40;;;;;;5040756;28;20204;-85
2023/06/08 08:13:55;;;;;;;14.07;13.07;;;20.10;81.20;;;;;;5041138;28;20181;-86
2023/06/08 08:16:21;;;;;;;15.40;14.20;;;20.30;82.00;;;;;;5042061;28;20173;-87
2023/06/08 08:18:46;;;;;;;14.73;13.70;;;20.30;81.60;;;;;;5031574;28;20696;-86
2023/06/08 08:21:12;;;;;;;14.07;13.10;;;20.30;81.90;;;;;;5040929;28;20174;-84
2023/06/08 08:23:38;;;;;;;15.07;13.85;;;20.30;81.00;;;;;;5014234;28;20179;-84
2023/06/08 08:26:05;;;;;;;24.73;23.10;;;20.40;79.90;;;;;;5019844;28;20190;-86
2023/06/08 08:28:30;;;;;;;15.05;13.95;;;20.40;79.80;;;;;;5036907;28;20234;-87
2023/06/08 08:30:59;;;;;;;14.52;13.50;;;20.40;80.30;;;;;;5039633;28;20780;-85
2023/06/08 08:33:26;;;;;;;13.95;12.95;;;20.30;80.00;;;;;;5039141;28;20179;-84
2023/06/08 08:35:52;;;;;;;14.27;13.27;;;20.40;80.40;;;;;;5047923;28;20262;-85
2023/06/08 08:38:18;;;;;;;15.40;14.18;;;20.50;79.50;;;;;;5060056;28;20915;-85
2023/06/08 08:40:43;;;;;;;15.10;13.90;;;20.60;78.50;;;;;;5043868;28;20207;-84
2023/06/08 08:43:18;;;;;;;14.43;13.38;;;20.70;79.30;;;;;;5040969;28;20634;-86
2023/06/08 08:45:45;;;;;;;14.13;13.02;;;20.80;79.30;;;;;;5039562;28;20676;-85
2023/06/08 08:48:14;;;;;;;13.60;12.60;;;21.00;78.10;;;;;;5021297;28;20220;-85
2023/06/08 08:50:41;;;;;;;13.25;12.25;;;21.00;77.40;;;;;;5038533;28;20227;-86
2023/06/08 08:53:09;;;;;;;13.93;12.82;;;21.10;76.10;;;;;;5043316;28;20184;-84
2023/06/08 08:55:36;;;;;;;14.13;13.02;;;21.00;75.20;;;;;;5044261;28;20182;-85
2023/06/08 08:58:03;;;;;;;13.70;12.70;;;21.10;75.70;;;;;;5013430;28;20263;-85
2023/06/08 09:00:33;;;;;;;12.65;11.75;;;21.20;74.50;;;;;;5026049;28;20204;-87
2023/06/08 09:03:00;;;;;;;13.18;12.18;;;21.20;76.00;;;;;;5026535;28;20185;-85
2023/06/08 09:05:26;;;;;;;13.25;12.15;;;21.10;76.30;;;;;;5027347;28;20170;-85
2023/06/08 09:07:55;;;;;;;12.73;11.93;;;21.20;76.30;;;;;;5023017;28;20232;-87
2023/06/08 09:10:25;;;;;;;12.80;11.88;;;21.30;75.20;;;;;;5020020;28;20195;-86
2023/06/08 09:12:53;;;;;;;13.38;12.30;;;21.60;73.50;;;;;;5021333;28;20181;-87
2023/06/08 09:15:30;;;;;;;12.48;11.68;;;21.60;73.30;;;;;;5021060;28;20166;-86
2023/06/08 09:17:58;;;;;;;12.55;11.65;;;21.70;71.90;;;;;;5019800;28;20821;-87
2023/06/08 09:20:31;;;;;;;12.27;11.48;;;22.10;71.00;;;;;;5017498;28;20178;-87
2023/06/08 09:22:57;;;;;;;11.73;10.93;;;22.50;69.40;;;;;;5037273;28;20189;-84
2023/06/08 09:25:37;;;;;;;11.38;10.60;;;22.90;68.20;;;;;;5030034;28;20276;-88
2023/06/08 09:28:28;;;;;;;11.10;10.38;;;23.40;63.30;;;;;;5001161;28;20205;-87
2023/06/08 09:30:57;;;;;;;10.73;9.82;;;23.70;61.50;;;;;;5019618;28;20184;-87
2023/06/08 09:33:32;;;;;;;10.88;9.52;;;23.90;60.90;;;;;;5017325;28;20208;-86
2023/06/08 09:35:58;;;;;;;9.98;9.18;;;24.10;61.50;;;;;;5016725;28;20195;-85
2023/06/08 09:38:26;;;;;;;10.50;9.90;;;24.40;57.40;;;;;;5022794;28;20206;-84
2023/06/08 09:41:21;;;;;;;10.30;9.50;;;24.30;59.10;;;;;;5021672;28;20283;-87
2023/06/08 09:43:48;;;;;;;9.55;8.85;;;24.20;59.60;;;;;;5022174;28;20193;-85
2023/06/08 09:46:31;;;;;;;9.90;9.20;;;24.20;58.30;;;;;;5017050;28;20193;-87
2023/06/08 09:48:57;;;;;;;9.73;9.02;;;24.40;55.70;;;;;;5019472;28;20189;-87
2023/06/08 09:51:24;;;;;;;9.43;8.82;;;24.80;56.90;;;;;;5003064;28;20219;-86
2023/06/08 09:53:56;;;;;;;9.70;9.10;;;24.80;58.80;;;;;;5022798;28;20181;-88
2023/06/08 09:56:26;;;;;;;10.40;9.60;;;24.80;55.60;;;;;;5019718;28;20663;-88
2023/06/08 09:58:56;;;;;;;10.10;9.40;;;24.90;56.10;;;;;;5024266;28;20913;-87
2023/06/08 10:01:28;;;;;;;10.00;9.30;;;25.00;54.10;;;;;;5023497;28;20181;-86
2023/06/08 10:03:59;;;;;;;11.20;10.40;;;25.20;52.00;;;;;;5022229;28;20172;-88
2023/06/08 10:06:26;;;;;;;10.48;9.77;;;25.40;51.60;;;;;;5019006;28;20193;-88
2023/06/08 10:08:55;;;;;;;10.10;9.32;;;25.70;51.90;;;;;;5026939;28;20185;-84
2023/06/08 10:11:22;;;;;;;10.10;9.50;;;26.10;50.30;;;;;;5020400;28;20185;-86
2023/06/08 10:13:49;;;;;;;9.27;8.68;;;26.10;47.00;;;;;;5018123;28;20208;-87
2023/06/08 10:16:16;;;;;;;10.35;9.65;;;26.40;47.40;;;;;;5015335;28;20292;-87
2023/06/08 10:18:43;;;;;;;11.05;10.15;;;26.70;47.20;;;;;;5018042;28;20201;-87
2023/06/08 10:21:11;;;;;;;10.60;9.73;;;26.50;46.60;;;;;;5015061;28;20181;-88
2023/06/08 10:23:37;;;;;;;10.95;10.07;;;26.70;46.70;;;;;;4997791;28;20231;-87
2023/06/08 10:26:04;;;;;;;10.15;9.48;;;26.70;46.30;;;;;;5017422;28;20212;-85
2023/06/08 10:28:30;;;;;;;11.40;10.63;;;26.50;45.80;;;;;;5020950;28;20579;-87
2023/06/08 10:30:55;;;;;;;12.32;11.18;;;26.60;45.20;;;;;;5018677;28;20753;-87
2023/06/08 10:33:24;;;;;;;10.80;10.00;;;26.70;44.80;;;;;;5019584;28;20185;-88
2023/06/08 10:36:10;;;;;;;11.02;10.23;;;26.90;44.00;;;;;;5017964;28;20547;-86
2023/06/08 10:38:56;;;;;;;11.10;10.35;;;26.90;43.70;;;;;;5021973;28;20300;-88
2023/06/08 10:41:36;;;;;;;10.75;10.05;;;27.20;43.50;;;;;;5017589;28;20642;-88
2023/06/08 10:44:02;;;;;;;10.93;10.23;;;27.30;42.20;;;;;;5020224;28;20247;-86
2023/06/08 10:46:43;;;;;;;10.95;10.35;;;27.40;41.80;;;;;;5017794;28;20811;-87
2023/06/08 10:49:09;;;;;;;11.18;10.57;;;27.70;41.70;;;;;;5021321;28;20215;-87
2023/06/08 10:51:45;;;;;;;11.50;10.88;;;28.30;41.00;;;;;;5000931;28;20190;-87
2023/06/08 10:54:21;;;;;;;12.52;11.65;;;28.40;39.90;;;;;;5019165;28;20196;-86
2023/06/08 10:56:54;;;;;;;12.25;11.48;;;28.50;39.20;;;;;;5016320;28;20232;-86
2023/06/08 10:59:31;;;;;;;12.88;12.18;;;28.50;38.90;;;;;;5002875;28;20204;-88
2023/06/08 11:02:04;;;;;;;12.90;12.00;;;28.30;38.70;;;;;;5020193;28;20207;-86
2023/06/08 11:04:31;;;;;;;12.57;11.88;;;28.40;38.30;;;;;;5022387;28;20284;-88
2023/06/08 11:07:04;;;;;;;13.50;12.60;;;28.80;37.30;;;;;;5017270;28;20211;-88
2023/06/08 11:09:32;;;;;;;13.15;12.55;;;29.00;37.10;;;;;;5021871;28;20260;-86
2023/06/08 11:12:01;;;;;;;14.32;13.43;;;28.90;36.30;;;;;;5020034;28;20189;-90
2023/06/08 11:14:27;;;;;;;16.83;16.02;;;29.20;37.60;;;;;;5020408;28;20189;-88
2023/06/08 11:16:55;;;;;;;19.05;18.25;;;29.70;34.20;;;;;;5019085;28;20216;-87
2023/06/08 11:19:22;;;;;;;19.73;18.92;;;30.00;33.00;;;;;;5020743;28;20250;-88
2023/06/08 11:21:56;;;;;;;21.13;20.13;;;30.30;33.10;;;;;;5002758;28;20203;-89
2023/06/08 11:24:28;;;;;;;20.92;19.92;;;30.50;33.20;;;;;;5020459;28;20219;-87
2023/06/08 11:27:00;;;;;;;21.75;20.77;;;30.60;32.10;;;;;;5017356;28;20216;-90
2023/06/08 11:29:27;;;;;;;23.13;21.92;;;30.60;32.90;;;;;;5021468;28;20192;-89
2023/06/08 11:32:08;;;;;;;22.10;20.95;;;30.70;32.80;;;;;;5019840;28;20181;-86
2023/06/08 11:34:34;;;;;;;21.83;20.83;;;30.60;33.50;;;;;;5021633;28;20286;-89
2023/06/08 11:37:00;;;;;;;21.90;20.92;;;31.00;33.50;;;;;;5016794;28;21052;-87
2023/06/08 11:39:32;;;;;;;22.77;21.75;;;31.10;32.60;;;;;;5020326;28;20247;-88
2023/06/08 11:41:58;;;;;;;22.65;21.55;;;31.10;32.50;;;;;;5017232;28;20196;-88
2023/06/08 11:44:26;;;;;;;19.80;18.77;;;30.80;32.20;;;;;;5016607;28;20284;-87
2023/06/08 11:46:52;;;;;;;20.10;18.85;;;30.70;30.20;;;;;;5017631;28;20239;-89
2023/06/08 11:49:18;;;;;;;20.42;19.42;;;31.00;28.90;;;;;;5021809;28;20187;-88
2023/06/08 11:51:46;;;;;;;20.77;19.63;;;31.10;29.10;;;;;;5016236;28;21295;-86
2023/06/08 11:54:12;;;;;;;20.20;19.30;;;31.60;28.20;;;;;;5017662;28;20855;-88
2023/06/08 11:56:38;;;;;;;20.80;19.85;;;31.90;26.80;;;;;;5019588;28;20213;-86
2023/06/08 11:59:04;;;;;;;21.63;20.35;;;31.50;28.10;;;;;;5016513;28;20203;-87
2023/06/08 12:01:29;;;;;;;20.85;19.85;;;31.30;28.10;;;;;;5016677;28;20577;-88
2023/06/08 12:03:56;;;;;;;20.77;19.88;;;31.60;27.80;;;;;;5017693;28;20472;-87
2023/06/08 12:06:26;;;;;;;21.33;20.33;;;31.80;28.10;;;;;;5015077;28;20368;-87
2023/06/08 12:08:55;;;;;;;21.50;20.50;;;31.80;27.60;;;;;;4996824;28;20216;-87
2023/06/08 12:11:21;;;;;;;20.15;19.20;;;32.20;27.60;;;;;;5014788;28;20185;-88
2023/06/08 12:13:47;;;;;;;20.83;19.83;;;32.40;26.80;;;;;;5014822;28;20181;-88
2023/06/08 12:16:13;;;;;;;18.83;18.00;;;32.60;26.30;;;;;;5010015;28;20232;-88
2023/06/08 12:18:41;;;;;;;18.85;17.88;;;32.60;25.10;;;;;;5014811;28;20232;-88
2023/06/08 12:21:14;;;;;;;18.05;17.05;;;32.10;25.20;;;;;;5016875;28;20244;-87
2023/06/08 12:23:40;;;;;;;19.23;18.42;;;31.90;25.10;;;;;;5017160;28;20640;-88
2023/06/08 12:26:06;;;;;;;18.80;17.88;;;32.30;25.50;;;;;;5013007;28;20180;-88
2023/06/08 12:28:32;;;;;;;18.08;17.27;;;32.10;25.30;;;;;;5017110;28;20213;-88
2023/06/08 12:31:00;;;;;;;18.50;17.60;;;32.10;25.20;;;;;;5018113;28;20189;-87
2023/06/08 12:33:26;;;;;;;19.50;18.60;;;32.40;25.40;;;;;;5016049;28;20360;-88
2023/06/08 12:35:54;;;;;;;20.98;20.10;;;32.90;24.60;;;;;;5017485;28;20235;-88
2023/06/08 12:38:20;;;;;;;21.83;20.98;;;33.40;24.00;;;;;;5019024;28;20292;-87